Time;durP1;ratioP1;P1;durP2;ratioP2;P2;SDS_P1;SDS_P2;PMS_P1;PMS_P2;Temp;Humidity;BMP_temperature;BMP_pressure;BME280_temperature;BME280_humidity;BME280_pressure;Samples;Min_cycle;Max_cycle;Signal;HPM_P1;HPM_P2
2024/02/06 00:00:37;;;;;;;8.57;5.23;;;7.50;99.90;;;;;;5062383;28;20218;-58
2024/02/06 00:03:05;;;;;;;8.87;6.07;;;7.50;99.90;;;;;;5062454;28;20228;-58
2024/02/06 00:05:32;;;;;;;10.13;5.37;;;7.50;99.90;;;;;;5065340;28;20232;-58
2024/02/06 00:07:59;;;;;;;7.50;5.10;;;7.60;99.90;;;;;;5065516;28;20205;-57
2024/02/06 00:10:25;;;;;;;8.47;4.80;;;7.60;99.90;;;;;;5063021;28;20216;-59
2024/02/06 00:12:52;;;;;;;6.47;4.97;;;7.60;99.90;;;;;;5062106;28;20206;-58
2024/02/06 00:15:19;;;;;;;6.47;4.73;;;7.60;99.90;;;;;;5063145;28;20671;-57
2024/02/06 00:17:46;;;;;;;10.57;5.37;;;7.60;99.90;;;;;;5065269;28;20235;-58
2024/02/06 00:20:19;;;;;;;7.93;5.03;;;7.70;99.90;;;;;;5064837;28;20243;-58
2024/02/06 00:22:45;;;;;;;11.83;5.00;;;7.80;99.90;;;;;;5061763;28;20505;-57
2024/02/06 00:25:12;;;;;;;8.53;4.80;;;7.70;99.90;;;;;;5061885;28;20229;-58
2024/02/06 00:27:40;;;;;;;7.37;4.97;;;7.80;99.90;;;;;;5063854;28;20213;-57
2024/02/06 00:30:07;;;;;;;9.57;5.27;;;7.80;99.90;;;;;;5065112;28;20262;-58
2024/02/06 00:32:34;;;;;;;11.37;5.67;;;7.90;99.90;;;;;;5061721;28;20202;-59
2024/02/06 00:35:01;;;;;;;10.27;5.40;;;8.00;99.90;;;;;;5061672;28;20292;-58
2024/02/06 00:37:31;;;;;;;6.47;4.87;;;7.90;99.90;;;;;;5063970;28;20230;-58
2024/02/06 00:39:58;;;;;;;6.87;4.63;;;8.00;99.90;;;;;;5064788;28;20236;-58
2024/02/06 00:42:25;;;;;;;8.27;4.63;;;8.00;99.90;;;;;;5062760;28;20689;-57
2024/02/06 00:44:51;;;;;;;8.40;5.07;;;8.00;99.90;;;;;;5061709;28;20225;-57
2024/02/06 00:47:19;;;;;;;6.90;5.00;;;8.10;99.90;;;;;;5062599;28;20609;-58
2024/02/06 00:49:45;;;;;;;9.77;4.87;;;8.00;99.90;;;;;;5064601;28;20212;-58
2024/02/06 00:52:12;;;;;;;9.70;5.77;;;8.00;99.90;;;;;;5064557;28;20205;-58
2024/02/06 00:54:40;;;;;;;7.20;4.50;;;7.90;99.90;;;;;;5061828;28;20202;-57
2024/02/06 00:57:07;;;;;;;7.23;4.70;;;7.90;99.90;;;;;;5061497;28;20256;-57
2024/02/06 00:59:33;;;;;;;8.00;4.87;;;7.90;99.90;;;;;;5064157;28;20212;-57
2024/02/06 01:02:00;;;;;;;7.07;4.20;;;7.90;99.90;;;;;;5064458;28;20208;-57
2024/02/06 01:04:27;;;;;;;6.50;4.70;;;7.90;99.90;;;;;;5061924;28;20278;-57
2024/02/06 01:06:54;;;;;;;9.20;5.00;;;7.90;99.90;;;;;;5060595;28;20707;-57
2024/02/06 01:09:20;;;;;;;8.20;5.20;;;8.00;99.90;;;;;;5062035;28;20201;-59
2024/02/06 01:11:48;;;;;;;7.73;4.70;;;7.90;99.90;;;;;;5064435;28;20276;-58
2024/02/06 01:14:15;;;;;;;7.50;4.80;;;7.90;99.90;;;;;;5063760;28;20201;-58
2024/02/06 01:16:42;;;;;;;10.63;5.30;;;8.00;99.90;;;;;;5060740;28;20222;-57
2024/02/06 01:19:08;;;;;;;8.77;5.07;;;7.90;99.90;;;;;;5060616;28;20508;-57
2024/02/06 01:21:35;;;;;;;7.33;4.67;;;7.80;99.90;;;;;;5064201;28;20205;-58
2024/02/06 01:24:02;;;;;;;8.90;4.80;;;7.90;99.90;;;;;;5063947;28;20217;-58
2024/02/06 01:26:29;;;;;;;6.27;4.73;;;8.10;99.90;;;;;;5060958;28;20259;-58
2024/02/06 01:28:57;;;;;;;6.33;4.60;;;8.10;99.90;;;;;;5059704;28;20217;-57
2024/02/06 01:31:24;;;;;;;12.40;4.70;;;8.10;99.90;;;;;;5062379;28;20210;-58
2024/02/06 01:33:51;;;;;;;9.23;4.60;;;8.00;99.90;;;;;;5063908;28;20213;-59
2024/02/06 01:36:19;;;;;;;7.90;4.33;;;7.90;99.90;;;;;;5062678;28;20228;-58
2024/02/06 01:38:45;;;;;;;7.77;4.83;;;7.90;99.90;;;;;;5060175;28;20205;-58
2024/02/06 01:41:12;;;;;;;7.10;4.53;;;8.00;99.90;;;;;;5060099;28;20671;-58
2024/02/06 01:43:39;;;;;;;6.97;4.60;;;8.00;99.90;;;;;;5063702;28;20201;-57
2024/02/06 01:46:07;;;;;;;6.97;4.93;;;8.00;99.90;;;;;;5063552;28;20225;-59
2024/02/06 01:48:34;;;;;;;11.13;4.63;;;8.00;99.90;;;;;;5060222;28;20202;-59
2024/02/06 01:51:02;;;;;;;9.03;4.77;;;8.10;99.90;;;;;;5060252;28;20216;-60
2024/02/06 01:53:29;;;;;;;8.70;5.00;;;8.00;99.90;;;;;;5062355;28;20210;-58
2024/02/06 01:55:56;;;;;;;7.90;5.13;;;8.10;99.90;;;;;;5063616;28;20289;-58
2024/02/06 01:58:24;;;;;;;9.07;5.37;;;8.00;99.90;;;;;;5061417;28;20577;-57
2024/02/06 02:00:52;;;;;;;7.37;4.90;;;7.90;99.90;;;;;;5060036;28;20579;-57
2024/02/06 02:03:21;;;;;;;7.07;4.70;;;7.90;99.90;;;;;;5060536;28;20217;-57
2024/02/06 02:05:48;;;;;;;7.93;5.00;;;8.00;99.90;;;;;;5063455;28;20232;-59
2024/02/06 02:08:15;;;;;;;11.27;5.50;;;8.10;99.90;;;;;;5062915;28;20254;-58
2024/02/06 02:10:42;;;;;;;10.83;5.20;;;8.10;99.90;;;;;;5059935;28;20212;-57
2024/02/06 02:13:09;;;;;;;9.03;4.60;;;8.00;99.90;;;;;;5060058;28;20233;-58
2024/02/06 02:15:36;;;;;;;9.50;4.67;;;8.00;99.90;;;;;;5062975;28;20277;-59
2024/02/06 02:18:03;;;;;;;9.23;5.47;;;7.90;99.90;;;;;;5063011;28;20219;-57
2024/02/06 02:20:31;;;;;;;9.47;4.97;;;7.80;99.90;;;;;;5061223;28;20696;-58
2024/02/06 02:23:00;;;;;;;10.83;5.03;;;7.80;99.90;;;;;;5059515;28;20256;-59
2024/02/06 02:25:26;;;;;;;9.57;5.10;;;7.90;99.90;;;;;;5061235;28;20730;-58
2024/02/06 02:27:53;;;;;;;9.27;4.90;;;8.10;99.90;;;;;;5062956;28;20262;-58
2024/02/06 02:30:21;;;;;;;7.53;4.57;;;8.10;99.90;;;;;;5062043;28;20295;-58
2024/02/06 02:32:47;;;;;;;9.30;4.97;;;8.00;99.90;;;;;;5059793;28;20209;-58
2024/02/06 02:35:15;;;;;;;7.10;4.70;;;8.00;99.90;;;;;;5059862;28;20204;-59
2024/02/06 02:37:41;;;;;;;9.50;5.07;;;8.00;99.90;;;;;;5063198;28;20211;-58
2024/02/06 02:40:10;;;;;;;13.67;5.37;;;8.10;99.90;;;;;;5062874;28;20209;-58
2024/02/06 02:42:37;;;;;;;8.87;5.23;;;8.10;99.90;;;;;;5059873;28;20252;-58
2024/02/06 02:45:04;;;;;;;9.77;5.23;;;8.10;99.90;;;;;;5059111;28;20229;-58
2024/02/06 02:47:32;;;;;;;9.43;5.20;;;8.10;99.90;;;;;;5061375;28;20233;-59
2024/02/06 02:49:58;;;;;;;6.23;4.80;;;8.10;99.90;;;;;;5064004;28;20215;-58
2024/02/06 02:52:25;;;;;;;7.93;5.10;;;7.90;99.90;;;;;;5065354;28;20205;-59
2024/02/06 02:54:52;;;;;;;12.23;5.30;;;8.00;99.90;;;;;;5063160;28;20214;-57
2024/02/06 02:57:20;;;;;;;10.80;4.80;;;8.10;99.90;;;;;;5063909;28;20286;-58
2024/02/06 02:59:46;;;;;;;13.73;5.20;;;8.10;99.90;;;;;;5066583;28;20205;-57
2024/02/06 03:02:13;;;;;;;7.17;5.10;;;8.10;99.90;;;;;;5066691;28;20292;-58
2024/02/06 03:04:41;;;;;;;8.23;5.03;;;8.00;99.90;;;;;;5054987;28;20245;-57
2024/02/06 03:07:07;;;;;;;6.83;5.10;;;8.10;99.90;;;;;;5063119;28;20279;-58
2024/02/06 03:09:35;;;;;;;10.73;5.07;;;8.00;99.90;;;;;;5065638;28;20209;-57
2024/02/06 03:12:02;;;;;;;8.53;5.33;;;8.10;99.90;;;;;;5066468;28;20334;-57
2024/02/06 03:14:30;;;;;;;9.23;5.40;;;8.30;99.90;;;;;;5064661;28;20205;-58
2024/02/06 03:16:57;;;;;;;9.90;5.13;;;8.20;99.90;;;;;;5062966;28;20244;-57
2024/02/06 03:19:23;;;;;;;10.60;4.70;;;8.10;99.90;;;;;;5063960;28;20206;-57
2024/02/06 03:21:50;;;;;;;11.17;4.87;;;8.10;99.90;;;;;;5066497;28;20209;-57
2024/02/06 03:24:17;;;;;;;9.63;5.10;;;8.10;99.90;;;;;;5065968;28;20208;-58
2024/02/06 03:26:44;;;;;;;9.37;5.00;;;8.30;99.90;;;;;;5062514;28;20590;-58
2024/02/06 03:29:11;;;;;;;9.53;5.20;;;8.30;99.90;;;;;;5062662;28;20271;-59
2024/02/06 03:31:39;;;;;;;10.23;4.70;;;8.40;99.90;;;;;;5065798;28;20209;-58
2024/02/06 03:34:06;;;;;;;7.43;4.93;;;8.40;99.90;;;;;;5066067;28;20205;-58
2024/02/06 03:36:32;;;;;;;7.97;5.20;;;8.20;99.90;;;;;;5063434;28;20225;-58
2024/02/06 03:38:59;;;;;;;8.43;4.80;;;8.20;99.90;;;;;;5062435;28;20217;-59
2024/02/06 03:41:26;;;;;;;7.80;4.93;;;8.30;99.90;;;;;;5063540;28;20694;-59
2024/02/06 03:43:52;;;;;;;7.90;4.70;;;8.20;99.90;;;;;;5066124;28;20255;-58
2024/02/06 03:46:19;;;;;;;8.13;4.97;;;8.00;99.90;;;;;;5064927;28;20232;-56
2024/02/06 03:48:47;;;;;;;9.67;5.00;;;8.00;99.90;;;;;;5061767;28;20209;-59
2024/02/06 03:51:13;;;;;;;8.23;4.70;;;8.10;99.90;;;;;;5062637;28;20589;-59
2024/02/06 03:53:40;;;;;;;8.97;5.10;;;8.00;99.90;;;;;;5065923;28;20216;-56
2024/02/06 03:56:08;;;;;;;9.13;5.10;;;8.00;99.90;;;;;;5066087;28;20231;-56
2024/02/06 03:58:34;;;;;;;9.43;5.33;;;8.00;99.90;;;;;;5062938;28;20204;-56
2024/02/06 04:01:01;;;;;;;8.93;5.00;;;8.10;99.90;;;;;;5062316;28;20210;-55
2024/02/06 04:03:28;;;;;;;10.43;4.80;;;8.10;99.90;;;;;;5063823;28;20210;-58
2024/02/06 04:05:56;;;;;;;10.30;5.47;;;8.10;99.90;;;;;;5065492;28;20232;-55
2024/02/06 04:08:22;;;;;;;9.17;4.93;;;8.00;99.90;;;;;;5064103;28;20201;-57
2024/02/06 04:10:49;;;;;;;14.10;5.47;;;7.80;99.90;;;;;;5062091;28;20209;-57
2024/02/06 04:13:16;;;;;;;27.17;17.87;;;7.80;99.90;;;;;;5062317;28;20206;-55
2024/02/06 04:15:42;;;;;;;10.03;4.83;;;7.80;99.90;;;;;;5053964;28;20698;-57
2024/02/06 04:18:09;;;;;;;10.83;5.50;;;7.90;99.90;;;;;;5061812;28;20589;-56
2024/02/06 04:20:36;;;;;;;8.07;4.87;;;7.90;99.90;;;;;;5064605;28;20734;-56
2024/02/06 04:23:04;;;;;;;8.90;4.73;;;7.90;99.90;;;;;;5065313;28;20209;-57
2024/02/06 04:25:31;;;;;;;7.80;4.60;;;7.90;99.90;;;;;;5062628;28;20682;-56
2024/02/06 04:27:58;;;;;;;8.93;4.73;;;7.70;99.90;;;;;;5061820;28;20201;-56
2024/02/06 04:30:25;;;;;;;10.83;5.37;;;7.70;99.90;;;;;;5062832;28;20232;-57
2024/02/06 04:32:53;;;;;;;6.57;4.47;;;7.60;99.90;;;;;;5065191;28;20212;-56
2024/02/06 04:35:20;;;;;;;12.17;4.93;;;7.50;99.90;;;;;;5064412;28;20207;-55
2024/02/06 04:37:46;;;;;;;9.33;4.70;;;7.40;99.90;;;;;;5061595;28;20214;-55
2024/02/06 04:40:15;;;;;;;7.17;4.60;;;7.50;99.90;;;;;;5061490;28;20671;-55
2024/02/06 04:42:41;;;;;;;9.90;5.53;;;7.40;99.90;;;;;;5064883;28;20221;-56
2024/02/06 04:45:09;;;;;;;7.23;4.97;;;7.50;99.90;;;;;;5064897;28;20227;-58
2024/02/06 04:47:35;;;;;;;9.40;4.67;;;7.50;99.90;;;;;;5061714;28;20236;-56
2024/02/06 04:50:02;;;;;;;10.37;4.87;;;7.50;99.90;;;;;;5061199;28;20205;-56
2024/02/06 04:52:29;;;;;;;10.50;4.93;;;7.50;99.90;;;;;;5063066;28;20245;-57
2024/02/06 04:54:56;;;;;;;12.20;5.40;;;7.60;99.90;;;;;;5064783;28;20671;-56
2024/02/06 04:57:24;;;;;;;8.50;5.40;;;7.40;99.90;;;;;;5063780;28;20523;-56
2024/02/06 04:59:51;;;;;;;11.70;5.73;;;7.50;99.90;;;;;;5061083;28;20472;-56
2024/02/06 05:02:18;;;;;;;7.33;5.07;;;7.40;99.90;;;;;;5061167;28;20210;-57
2024/02/06 05:04:45;;;;;;;13.03;5.73;;;7.50;99.90;;;;;;5064560;28;20205;-56
2024/02/06 05:07:11;;;;;;;10.33;5.50;;;7.60;99.90;;;;;;5064663;28;20221;-58
2024/02/06 05:09:38;;;;;;;10.30;5.37;;;7.70;99.90;;;;;;5061380;28;20225;-57
2024/02/06 05:12:07;;;;;;;8.00;4.63;;;7.80;99.90;;;;;;5060791;28;20205;-56
2024/02/06 05:14:36;;;;;;;10.20;5.03;;;7.80;99.90;;;;;;5062760;28;20205;-57
2024/02/06 05:17:03;;;;;;;8.13;4.77;;;7.90;99.90;;;;;;5064040;28;20255;-56
2024/02/06 05:19:30;;;;;;;8.77;5.10;;;8.20;99.90;;;;;;5062560;28;20258;-56
2024/02/06 05:21:59;;;;;;;8.50;5.10;;;8.30;99.90;;;;;;5060705;28;20694;-56
2024/02/06 05:24:26;;;;;;;7.33;4.83;;;8.40;99.90;;;;;;5061909;28;20248;-56
2024/02/06 05:26:53;;;;;;;8.10;4.20;;;8.50;99.90;;;;;;5064236;28;20224;-56
2024/02/06 05:29:19;;;;;;;9.50;4.67;;;8.60;99.90;;;;;;5063907;28;20201;-55
2024/02/06 05:31:47;;;;;;;7.03;4.43;;;8.70;99.90;;;;;;5060708;28;20201;-56
2024/02/06 05:34:14;;;;;;;13.03;4.63;;;8.70;99.90;;;;;;5060875;28;20198;-57
2024/02/06 05:36:41;;;;;;;6.30;3.93;;;8.70;99.90;;;;;;5063688;28;20229;-56
2024/02/06 05:39:09;;;;;;;6.90;3.67;;;8.70;99.90;;;;;;5064119;28;20236;-57
2024/02/06 05:41:35;;;;;;;6.43;3.70;;;8.80;99.90;;;;;;5061375;28;20288;-56
2024/02/06 05:44:03;;;;;;;6.10;3.40;;;8.90;99.90;;;;;;5060342;28;20667;-56
2024/02/06 05:46:29;;;;;;;7.90;4.17;;;8.80;99.90;;;;;;5061486;28;20675;-56
2024/02/06 05:48:59;;;;;;;6.67;4.00;;;8.90;99.90;;;;;;5063476;28;20254;-57
2024/02/06 05:51:25;;;;;;;8.47;4.17;;;8.90;99.90;;;;;;5062652;28;20209;-56
2024/02/06 05:53:52;;;;;;;15.23;6.67;;;8.90;99.90;;;;;;5060194;28;20263;-59
2024/02/06 05:56:19;;;;;;;5.43;4.10;;;9.00;99.90;;;;;;5060090;28;20218;-57
2024/02/06 05:58:45;;;;;;;8.83;4.10;;;9.10;99.90;;;;;;5051708;28;20209;-56
2024/02/06 06:01:12;;;;;;;5.33;4.20;;;9.10;99.90;;;;;;5060278;28;20609;-56
2024/02/06 06:03:39;;;;;;;10.00;5.10;;;9.10;99.90;;;;;;5062550;28;20573;-56
2024/02/06 06:06:08;;;;;;;8.03;4.77;;;9.10;99.90;;;;;;5063409;28;20221;-56
2024/02/06 06:08:35;;;;;;;5.87;4.03;;;9.20;99.90;;;;;;5061062;28;20201;-57
2024/02/06 06:11:03;;;;;;;5.67;3.93;;;9.10;99.90;;;;;;5060273;28;20212;-55
2024/02/06 06:13:30;;;;;;;9.30;6.13;;;9.10;99.90;;;;;;5061283;28;20201;-56
2024/02/06 06:15:57;;;;;;;9.53;4.37;;;9.10;99.90;;;;;;5063589;28;20231;-59
2024/02/06 06:18:24;;;;;;;6.70;4.03;;;9.10;99.90;;;;;;5062660;28;20308;-56
2024/02/06 06:20:50;;;;;;;5.67;3.93;;;9.20;99.90;;;;;;5060536;28;20209;-55
2024/02/06 06:23:18;;;;;;;7.10;4.63;;;9.20;99.90;;;;;;5060458;28;20205;-56
2024/02/06 06:25:45;;;;;;;5.30;4.13;;;9.20;99.90;;;;;;5062802;28;20275;-56
2024/02/06 06:28:12;;;;;;;7.03;3.50;;;9.20;99.90;;;;;;5064340;28;20690;-57
2024/02/06 06:30:39;;;;;;;6.80;3.80;;;9.10;99.90;;;;;;5067468;28;20209;-59
2024/02/06 06:33:05;;;;;;;5.13;3.90;;;9.10;99.90;;;;;;5068032;28;20207;-55
2024/02/06 06:35:32;;;;;;;5.73;4.13;;;9.10;99.90;;;;;;5065966;28;20290;-55
2024/02/06 06:37:59;;;;;;;9.20;5.10;;;9.10;99.90;;;;;;5064135;28;20201;-58
2024/02/06 06:40:27;;;;;;;9.80;5.90;;;9.20;99.90;;;;;;5064380;28;20202;-56
2024/02/06 06:42:54;;;;;;;8.00;5.40;;;9.20;99.90;;;;;;5067273;28;20200;-55
2024/02/06 06:45:21;;;;;;;7.77;5.27;;;9.10;99.90;;;;;;5066728;28;20236;-58
2024/02/06 06:47:48;;;;;;;7.70;4.27;;;9.20;99.90;;;;;;5063680;28;20221;-57
2024/02/06 06:50:14;;;;;;;8.00;4.30;;;9.20;99.90;;;;;;5063516;28;20205;-55
2024/02/06 06:52:42;;;;;;;6.53;4.00;;;9.20;99.90;;;;;;5065485;28;20674;-58
2024/02/06 06:55:09;;;;;;;6.53;4.77;;;9.20;99.90;;;;;;5067021;28;20228;-56
2024/02/06 06:57:42;;;;;;;7.63;5.07;;;9.30;99.90;;;;;;5064326;28;20654;-56
2024/02/06 07:00:11;;;;;;;13.17;11.30;;;9.20;99.90;;;;;;5063649;28;20638;-57
2024/02/06 07:02:37;;;;;;;10.17;6.40;;;9.30;99.90;;;;;;5065639;28;20237;-60
2024/02/06 07:05:04;;;;;;;6.93;5.10;;;9.20;99.90;;;;;;5066865;28;20205;-55
2024/02/06 07:07:32;;;;;;;7.90;7.10;;;9.00;99.90;;;;;;5064738;28;20609;-56
2024/02/06 07:09:59;;;;;;;7.67;5.70;;;9.00;99.90;;;;;;5063819;28;20209;-55
2024/02/06 07:12:26;;;;;;;8.50;4.53;;;9.00;99.90;;;;;;5063784;28;20197;-58
2024/02/06 07:14:53;;;;;;;8.60;4.60;;;9.00;99.90;;;;;;5066565;28;20296;-57
2024/02/06 07:17:20;;;;;;;10.23;6.90;;;9.10;99.90;;;;;;5066440;28;20221;-57
2024/02/06 07:19:47;;;;;;;11.07;4.43;;;9.20;99.90;;;;;;5066112;28;20602;-56
2024/02/06 07:22:13;;;;;;;12.23;8.93;;;9.20;99.90;;;;;;5066290;28;20224;-57
2024/02/06 07:24:40;;;;;;;8.97;5.97;;;9.20;99.90;;;;;;5063697;28;20740;-57
2024/02/06 07:27:07;;;;;;;8.00;4.43;;;9.20;99.90;;;;;;5062610;28;20225;-56
2024/02/06 07:29:35;;;;;;;7.10;4.17;;;9.20;99.90;;;;;;5064009;28;20682;-56
2024/02/06 07:32:03;;;;;;;6.53;4.10;;;9.10;99.90;;;;;;5066322;28;20652;-56
2024/02/06 07:34:29;;;;;;;8.50;4.00;;;9.00;99.90;;;;;;5064869;28;20254;-56
2024/02/06 07:36:56;;;;;;;6.00;3.87;;;9.00;99.90;;;;;;5062310;28;20221;-58
2024/02/06 07:39:23;;;;;;;7.13;5.97;;;8.90;99.90;;;;;;5062467;28;20675;-56
2024/02/06 07:41:49;;;;;;;10.13;5.13;;;8.90;99.90;;;;;;5066047;28;20208;-56
2024/02/06 07:44:16;;;;;;;6.90;4.40;;;8.90;99.90;;;;;;5066330;28;20200;-56
2024/02/06 07:46:43;;;;;;;8.33;4.27;;;8.90;99.90;;;;;;5062796;28;20237;-57
2024/02/06 07:49:12;;;;;;;5.53;4.03;;;8.90;99.90;;;;;;5062101;28;20237;-56
2024/02/06 07:51:40;;;;;;;5.93;3.60;;;8.90;99.90;;;;;;5064924;28;20212;-57
2024/02/06 07:54:07;;;;;;;6.30;4.13;;;9.00;99.90;;;;;;5065932;28;20288;-58
2024/02/06 07:56:34;;;;;;;6.30;3.90;;;9.00;99.90;;;;;;5064167;28;20221;-57
2024/02/06 07:59:02;;;;;;;7.87;3.77;;;9.00;99.90;;;;;;5062175;28;20259;-59
2024/02/06 08:01:28;;;;;;;7.67;4.20;;;9.10;99.90;;;;;;5062826;28;20225;-57
2024/02/06 08:03:55;;;;;;;5.97;3.73;;;9.10;99.90;;;;;;5065447;28;20258;-56
2024/02/06 08:06:23;;;;;;;7.57;4.10;;;9.10;99.90;;;;;;5065691;28;20229;-57
2024/02/06 08:08:50;;;;;;;7.47;4.00;;;9.20;99.90;;;;;;5054182;28;20244;-56
2024/02/06 08:11:16;;;;;;;4.33;3.63;;;9.20;99.90;;;;;;5062193;28;20432;-57
2024/02/06 08:13:44;;;;;;;7.00;4.37;;;9.20;99.90;;;;;;5064779;28;20213;-56
2024/02/06 08:16:11;;;;;;;8.60;4.00;;;9.10;99.90;;;;;;5065340;28;20706;-56
2024/02/06 08:18:38;;;;;;;7.67;3.93;;;9.20;99.90;;;;;;5063362;28;20291;-57
2024/02/06 08:21:05;;;;;;;6.53;3.90;;;9.20;99.90;;;;;;5062038;28;20205;-56
2024/02/06 08:23:33;;;;;;;8.73;3.70;;;9.30;99.90;;;;;;5062953;28;20259;-56
2024/02/06 08:26:00;;;;;;;6.77;4.20;;;9.30;99.90;;;;;;5065080;28;20217;-56
2024/02/06 08:28:26;;;;;;;6.13;3.77;;;9.30;99.90;;;;;;5064481;28;20575;-57
2024/02/06 08:30:53;;;;;;;8.00;4.20;;;9.40;99.90;;;;;;5061487;28;20206;-58
2024/02/06 08:33:20;;;;;;;6.57;3.90;;;9.40;99.90;;;;;;5061918;28;20205;-56
2024/02/06 08:35:51;;;;;;;5.57;3.73;;;9.50;99.90;;;;;;5064699;28;20221;-56
2024/02/06 08:38:17;;;;;;;8.93;3.73;;;9.40;99.90;;;;;;5064959;28;20293;-58
2024/02/06 08:40:47;;;;;;;10.30;3.80;;;9.40;99.90;;;;;;5061975;28;20259;-56
2024/02/06 08:43:14;;;;;;;6.47;4.40;;;9.50;99.90;;;;;;5061295;28;20561;-57
2024/02/06 08:45:40;;;;;;;7.20;4.63;;;9.60;99.90;;;;;;5063446;28;20241;-56
2024/02/06 08:48:08;;;;;;;9.00;5.27;;;9.60;99.90;;;;;;5063735;28;20213;-56
2024/02/06 08:50:35;;;;;;;7.00;3.63;;;9.80;99.90;;;;;;5063193;28;20557;-56
2024/02/06 08:53:02;;;;;;;10.47;4.47;;;9.90;99.90;;;;;;5061414;28;20213;-57
2024/02/06 08:55:29;;;;;;;7.87;4.93;;;10.00;99.90;;;;;;5061434;28;20347;-56
2024/02/06 08:57:57;;;;;;;5.80;3.50;;;10.10;99.90;;;;;;5064211;28;20749;-56
2024/02/06 09:00:24;;;;;;;7.20;3.50;;;10.30;99.90;;;;;;5064565;28;20472;-56
2024/02/06 09:02:50;;;;;;;6.77;3.40;;;10.40;99.90;;;;;;5053098;28;20213;-56
2024/02/06 09:05:17;;;;;;;6.80;3.40;;;10.50;99.90;;;;;;5061237;28;20205;-56
2024/02/06 09:07:43;;;;;;;10.60;6.57;;;10.40;99.90;;;;;;5063063;28;20229;-56
2024/02/06 09:10:11;;;;;;;7.10;3.17;;;10.40;99.90;;;;;;5064078;28;20205;-56
2024/02/06 09:12:37;;;;;;;7.03;3.07;;;10.50;99.90;;;;;;5062281;28;20232;-56
2024/02/06 09:15:06;;;;;;;6.40;3.10;;;10.50;99.90;;;;;;5060748;28;20686;-58
2024/02/06 09:17:33;;;;;;;10.83;3.60;;;10.50;99.90;;;;;;5061420;28;20225;-56
2024/02/06 09:20:00;;;;;;;7.33;3.33;;;10.40;99.90;;;;;;5064119;28;20201;-56
2024/02/06 09:22:26;;;;;;;7.23;3.30;;;10.40;99.90;;;;;;5063542;28;20209;-58
2024/02/06 09:24:53;;;;;;;4.63;3.10;;;10.40;99.90;;;;;;5060243;28;20198;-56
2024/02/06 09:27:19;;;;;;;5.13;3.17;;;10.50;99.90;;;;;;5060543;28;20229;-56
2024/02/06 09:29:46;;;;;;;4.57;2.90;;;10.50;99.90;;;;;;5062987;28;20621;-59
2024/02/06 09:32:15;;;;;;;10.77;3.63;;;10.50;99.90;;;;;;5063657;28;20693;-57
2024/02/06 09:34:41;;;;;;;5.47;3.53;;;10.60;99.90;;;;;;5061779;28;20292;-56
2024/02/06 09:37:09;;;;;;;7.30;3.27;;;10.70;99.90;;;;;;5060427;28;20218;-57
2024/02/06 09:39:36;;;;;;;7.80;3.27;;;10.70;99.90;;;;;;5061330;28;20292;-56
2024/02/06 09:42:03;;;;;;;6.17;3.20;;;10.70;99.90;;;;;;5063947;28;20254;-59
2024/02/06 09:44:30;;;;;;;5.80;3.17;;;10.70;99.90;;;;;;5063218;28;20228;-56
2024/02/06 09:46:59;;;;;;;7.43;3.40;;;10.70;99.90;;;;;;5060474;28;20654;-63
2024/02/06 09:49:28;;;;;;;9.17;3.30;;;10.70;99.90;;;;;;5060340;28;20289;-61
2024/02/06 09:51:55;;;;;;;6.23;3.40;;;10.80;99.90;;;;;;5052420;28;20198;-61
2024/02/06 09:54:25;;;;;;;4.27;2.93;;;10.80;99.90;;;;;;5059910;28;20603;-61
2024/02/06 09:56:53;;;;;;;6.53;2.93;;;10.80;99.90;;;;;;5060249;28;20271;-61
2024/02/06 09:59:21;;;;;;;6.33;3.20;;;10.80;99.90;;;;;;5059657;28;20213;-61
2024/02/06 10:01:49;;;;;;;5.57;2.97;;;11.00;99.90;;;;;;5063032;28;20279;-62
2024/02/06 10:04:17;;;;;;;5.20;2.90;;;11.00;99.90;;;;;;5063318;28;20204;-62
2024/02/06 10:06:46;;;;;;;7.60;4.50;;;11.10;99.90;;;;;;5060528;28;20220;-62
2024/02/06 10:09:13;;;;;;;6.27;3.23;;;11.20;99.90;;;;;;5059806;28;20206;-61
2024/02/06 10:11:40;;;;;;;6.70;3.23;;;11.20;99.90;;;;;;5061682;28;20201;-61
2024/02/06 10:14:08;;;;;;;6.00;3.23;;;11.30;99.90;;;;;;5063442;28;20287;-61
2024/02/06 10:16:34;;;;;;;7.10;3.57;;;11.30;99.90;;;;;;5061988;28;20223;-61
2024/02/06 10:19:01;;;;;;;9.70;3.40;;;11.40;99.90;;;;;;5059605;28;20494;-62
2024/02/06 10:21:28;;;;;;;5.27;2.87;;;11.40;99.90;;;;;;5059754;28;20213;-61
2024/02/06 10:24:02;;;;;;;6.80;3.00;;;11.50;99.90;;;;;;5063343;28;20201;-61
2024/02/06 10:26:29;;;;;;;5.00;2.73;;;11.40;99.90;;;;;;5063229;28;20307;-62
2024/02/06 10:29:05;;;;;;;7.13;3.17;;;11.50;99.90;;;;;;5059231;28;20248;-62
2024/02/06 10:31:31;;;;;;;7.23;4.03;;;11.60;99.90;;;;;;5060048;28;20297;-60
2024/02/06 10:34:07;;;;;;;6.07;3.60;;;11.70;99.90;;;;;;5062953;28;20208;-61
2024/02/06 10:36:34;;;;;;;6.43;3.40;;;11.70;99.90;;;;;;5062059;28;20251;-61
2024/02/06 10:39:03;;;;;;;5.43;3.40;;;11.80;99.90;;;;;;5059200;28;20198;-61
2024/02/06 10:41:29;;;;;;;4.80;2.67;;;11.80;99.90;;;;;;5059571;28;20205;-62
2024/02/06 10:43:56;;;;;;;5.30;2.80;;;11.80;99.90;;;;;;5062815;28;20197;-61
2024/02/06 10:46:23;;;;;;;5.60;2.50;;;11.80;99.90;;;;;;5062622;28;20263;-61
2024/02/06 10:48:50;;;;;;;6.43;2.83;;;11.90;99.90;;;;;;5052518;28;20221;-62
2024/02/06 10:51:23;;;;;;;5.37;2.90;;;11.80;99.90;;;;;;5059206;28;20625;-63
2024/02/06 10:53:50;;;;;;;7.93;2.97;;;11.90;99.90;;;;;;5062535;28;20280;-60
2024/02/06 10:56:20;;;;;;;8.07;4.87;;;11.90;99.90;;;;;;5062621;28;20217;-62
2024/02/06 10:58:56;;;;;;;6.03;3.00;;;11.80;99.90;;;;;;5059173;28;20204;-59
2024/02/06 11:01:28;;;;;;;5.63;2.87;;;11.80;99.90;;;;;;5059894;28;20271;-58
2024/02/06 11:03:57;;;;;;;4.50;2.67;;;11.70;99.90;;;;;;5062666;28;20311;-59
2024/02/06 11:06:27;;;;;;;5.57;2.20;;;11.80;99.90;;;;;;5062684;28;20271;-58
2024/02/06 11:08:56;;;;;;;6.10;2.60;;;12.00;99.90;;;;;;5062740;28;20270;-65
2024/02/06 11:11:24;;;;;;;4.90;2.37;;;12.00;99.90;;;;;;5064689;28;20291;-61
2024/02/06 11:13:52;;;;;;;4.33;2.47;;;12.10;99.90;;;;;;5063797;28;20202;-61
2024/02/06 11:16:21;;;;;;;3.83;2.10;;;12.10;99.90;;;;;;5063281;28;20229;-59
2024/02/06 11:18:54;;;;;;;3.47;2.03;;;12.10;99.90;;;;;;5065327;28;20255;-56
2024/02/06 11:21:24;;;;;;;2.67;1.90;;;12.20;99.90;;;;;;5066299;28;20695;-61
2024/02/06 11:23:51;;;;;;;2.80;2.03;;;12.30;99.90;;;;;;5063246;28;20557;-60
2024/02/06 11:26:19;;;;;;;3.37;1.80;;;12.40;99.90;;;;;;5062875;28;20312;-60
2024/02/06 11:28:48;;;;;;;2.90;1.67;;;12.50;99.90;;;;;;5064705;28;20774;-64
2024/02/06 11:31:15;;;;;;;3.50;2.00;;;12.50;99.90;;;;;;5066724;28;20650;-63
2024/02/06 11:33:42;;;;;;;2.80;1.50;;;12.50;99.90;;;;;;5064497;28;20212;-65
2024/02/06 11:36:12;;;;;;;2.60;1.63;;;12.40;99.90;;;;;;5062520;28;20217;-63
2024/02/06 11:38:39;;;;;;;3.93;1.90;;;12.40;99.90;;;;;;5063501;28;20327;-64
2024/02/06 11:41:11;;;;;;;4.73;2.17;;;12.30;99.90;;;;;;5065915;28;20211;-65
2024/02/06 11:43:37;;;;;;;6.33;1.93;;;12.40;99.90;;;;;;5065306;28;20280;-61
2024/02/06 11:46:06;;;;;;;6.20;2.10;;;12.40;99.90;;;;;;5062460;28;20312;-63
2024/02/06 11:48:32;;;;;;;5.57;1.67;;;12.30;99.90;;;;;;5062365;28;20221;-63
2024/02/06 11:50:59;;;;;;;3.10;1.80;;;12.30;99.90;;;;;;5070380;28;20233;-62
2024/02/06 11:53:27;;;;;;;3.70;1.90;;;12.30;99.90;;;;;;5062324;28;20202;-63
2024/02/06 11:55:57;;;;;;;3.77;1.93;;;12.20;99.90;;;;;;5065679;28;20224;-62
2024/02/06 11:58:24;;;;;;;5.60;2.00;;;12.00;99.90;;;;;;5066338;28;20228;-66
2024/02/06 12:00:51;;;;;;;2.83;1.70;;;12.10;99.90;;;;;;5063055;28;20201;-63
2024/02/06 12:03:20;;;;;;;4.50;3.73;;;12.20;99.90;;;;;;5063250;28;20209;-61
2024/02/06 12:05:46;;;;;;;4.37;2.00;;;12.30;99.90;;;;;;5065116;28;20252;-61
2024/02/06 12:08:16;;;;;;;4.43;1.70;;;12.40;99.90;;;;;;5066350;28;20224;-61
2024/02/06 12:10:43;;;;;;;4.80;1.90;;;12.50;99.90;;;;;;5064890;28;20208;-61
2024/02/06 12:13:11;;;;;;;5.00;1.73;;;12.40;99.90;;;;;;5063409;28;20208;-63
2024/02/06 12:15:38;;;;;;;2.77;1.70;;;12.50;99.90;;;;;;5063592;28;20225;-64
2024/02/06 12:18:08;;;;;;;3.60;1.70;;;12.40;99.90;;;;;;5064616;28;20254;-62
2024/02/06 12:20:38;;;;;;;6.07;2.00;;;12.40;99.90;;;;;;5064405;28;20211;-63
2024/02/06 12:23:06;;;;;;;6.37;1.70;;;12.50;99.90;;;;;;5060348;28;20311;-64
2024/02/06 12:25:35;;;;;;;3.57;1.63;;;12.50;99.90;;;;;;5062354;28;20202;-66
2024/02/06 12:28:02;;;;;;;4.73;1.70;;;12.60;99.90;;;;;;5064743;28;20224;-63
2024/02/06 12:30:30;;;;;;;3.97;1.60;;;12.70;99.90;;;;;;5064759;28;20201;-62
2024/02/06 12:32:58;;;;;;;8.30;4.23;;;12.70;99.90;;;;;;5053724;28;20205;-59
2024/02/06 12:35:25;;;;;;;7.07;2.90;;;12.90;99.90;;;;;;5061598;28;20668;-58
2024/02/06 12:37:56;;;;;;;7.00;2.20;;;12.90;99.90;;;;;;5064040;28;20215;-59
2024/02/06 12:40:24;;;;;;;5.40;1.83;;;12.90;99.90;;;;;;5064985;28;20208;-58
2024/02/06 12:42:51;;;;;;;3.07;2.00;;;12.90;99.90;;;;;;5061758;28;20205;-58
2024/02/06 12:45:19;;;;;;;7.13;3.80;;;12.90;99.90;;;;;;5060988;28;20675;-59
2024/02/06 12:47:46;;;;;;;4.80;2.57;;;13.00;99.90;;;;;;5071358;28;20316;-58
2024/02/06 12:50:13;;;;;;;2.73;1.60;;;13.10;99.90;;;;;;5064928;28;20205;-58
2024/02/06 12:52:40;;;;;;;5.47;2.50;;;13.10;99.90;;;;;;5064644;28;20204;-59